Lack, Pennsylvania
Current Conditions -  °F | °C
As of 12:45 AM on Thursday 18 Dec 2014 (Local Time) from KAOO Reporting Station
Light Snow Light Snow  
Wind Chill: 19°   Ceiling: 2800
Heat Index: 30°   Visibility: 8mi
Dew Point: 21°   Wind: 16mph
Humidity: 69%   Direction: 300°WNW
Pressure: 30.04"   Gusts: NA
Location:  40.2561°N, 77.7747°W
Report Text: KAOO 180545Z AUTO 30014KT 8SM -SN BKN028 OVC035 M01/M06 A3004 RMK AO2 SNB35 P0000 T10111061
Loading
Personal Weather Stations






























Interactive Weather Map New forecast layout! Learn more

10-Day Weather Forecast

Advertisements
Track Severe Weather on mobile